createdAt,value
2023-05-06T00:02:17.088Z,85
2023-05-06T00:07:19.228Z,85
2023-05-06T00:12:21.024Z,85
2023-05-06T00:17:23.018Z,85
2023-05-06T00:22:24.312Z,85
2023-05-06T00:27:26.410Z,85
2023-05-06T00:32:27.577Z,85
2023-05-06T00:37:29.647Z,84
2023-05-06T00:42:30.794Z,84
2023-05-06T00:47:32.924Z,84
2023-05-06T00:52:34.458Z,85
2023-05-06T00:57:36.507Z,84
2023-05-06T01:02:46.815Z,84
2023-05-06T01:07:39.578Z,85
2023-05-06T01:12:40.889Z,85
2023-05-06T01:17:42.741Z,85
2023-05-06T01:22:44.201Z,85
2023-05-06T01:27:45.877Z,86
2023-05-06T01:32:47.700Z,85
2023-05-06T01:37:49.700Z,85
2023-05-06T01:42:50.948Z,86
2023-05-06T01:47:52.512Z,86
2023-05-06T01:52:53.840Z,86
2023-05-06T01:57:55.322Z,86
2023-05-06T02:02:57.304Z,88
2023-05-06T02:07:58.461Z,88
2023-05-06T02:13:00.582Z,87
2023-05-06T02:18:01.929Z,87
2023-05-06T02:23:03.593Z,88
2023-05-06T02:28:05.080Z,86
2023-05-06T02:33:06.509Z,86
2023-05-06T02:38:08.269Z,87
2023-05-06T02:43:10.323Z,87
2023-05-06T02:48:11.831Z,87
2023-05-06T02:53:13.248Z,87
2023-05-06T02:58:15.275Z,88
2023-05-06T03:03:17.224Z,87
2023-05-06T03:08:18.633Z,86
2023-05-06T03:13:20.483Z,86
2023-05-06T03:18:21.961Z,86
2023-05-06T03:23:23.481Z,86
2023-05-06T03:28:24.840Z,86
2023-05-06T03:33:26.470Z,86
2023-05-06T03:53:33.126Z,87
2023-05-06T03:58:34.434Z,87
2023-05-06T04:03:36.232Z,86
2023-05-06T04:13:39.586Z,86
2023-05-06T04:18:41.571Z,86
2023-05-06T04:23:43.138Z,86
2023-05-06T04:33:46.305Z,86
2023-05-06T04:48:50.819Z,87
2023-05-06T05:03:55.774Z,88
2023-05-06T05:24:03.395Z,86
2023-05-06T05:44:09.808Z,83
2023-05-06T05:54:13.391Z,82
2023-05-06T05:59:15.566Z,82
2023-05-06T06:19:28.717Z,80
2023-05-06T06:24:30.069Z,79
2023-05-06T06:29:31.257Z,78
2023-05-06T06:34:32.813Z,77
2023-05-06T06:39:34.247Z,76
2023-05-06T06:44:36.013Z,77
2023-05-06T06:49:38.083Z,76
2023-05-06T06:54:39.475Z,76
2023-05-06T06:59:40.767Z,75
2023-05-06T07:04:42.373Z,75
2023-05-06T07:09:44.418Z,75
2023-05-06T07:14:45.411Z,75
2023-05-06T07:19:46.671Z,74
2023-05-06T07:24:48.529Z,74
2023-05-06T07:29:49.952Z,73
2023-05-06T07:34:51.408Z,72
2023-05-06T07:39:52.812Z,71
2023-05-06T07:44:54.068Z,70
2023-05-06T07:49:55.661Z,69
2023-05-06T07:54:57.421Z,69
2023-05-06T07:59:59.418Z,68
2023-05-06T08:05:00.708Z,68
2023-05-06T08:10:01.921Z,67
2023-05-06T08:15:03.220Z,67
2023-05-06T08:20:04.705Z,66
2023-05-06T08:25:06.508Z,66
2023-05-06T08:30:07.869Z,65
2023-05-06T08:35:09.915Z,66
2023-05-06T08:40:10.865Z,65
2023-05-06T08:45:12.474Z,65
2023-05-06T08:50:13.717Z,65
2023-05-06T08:55:15.265Z,64
2023-05-06T09:00:17.371Z,62
2023-05-06T09:05:18.739Z,63
2023-05-06T09:10:19.967Z,63
2023-05-06T09:15:21.348Z,61
2023-05-06T09:20:22.547Z,60
2023-05-06T09:25:24.359Z,59
2023-05-06T09:30:26.188Z,57
2023-05-06T09:35:28.144Z,55
2023-05-06T09:40:29.578Z,53
2023-05-06T09:45:31.368Z,50
2023-05-06T09:50:33.215Z,49
2023-05-06T09:55:34.858Z,49
2023-05-06T10:00:36.792Z,48
2023-05-06T10:05:38.294Z,48
2023-05-06T10:10:39.752Z,45
2023-05-06T10:15:41.766Z,44
2023-05-06T10:20:43.428Z,42
2023-05-06T10:25:45.415Z,41
2023-05-06T10:30:47.257Z,41
2023-05-06T10:35:48.817Z,40
2023-05-06T10:40:50.646Z,40
2023-05-06T10:45:51.937Z,40
2023-05-06T10:50:53.227Z,41
2023-05-06T10:55:55.090Z,41
2023-05-06T11:00:57.190Z,39
2023-05-06T11:05:58.777Z,38
2023-05-06T11:11:00.392Z,38
2023-05-06T11:16:02.535Z,39
2023-05-06T11:21:03.866Z,39
2023-05-06T11:26:05.861Z,39
2023-05-06T11:31:07.476Z,40
2023-05-06T11:36:09.489Z,42
2023-05-06T11:41:11.258Z,42
2023-05-06T11:46:12.973Z,42
2023-05-06T11:51:14.508Z,42
2023-05-06T11:56:15.782Z,43
2023-05-06T12:01:17.891Z,41
2023-05-06T12:06:20.053Z,42
2023-05-06T12:11:21.769Z,43
2023-05-06T12:16:23.216Z,42
2023-05-06T12:21:25.057Z,42
2023-05-06T12:26:26.603Z,41
2023-05-06T12:31:28.358Z,41
2023-05-06T12:36:29.598Z,41
2023-05-06T12:41:30.992Z,41
2023-05-06T12:46:32.489Z,40
2023-05-06T12:51:34.025Z,41
2023-05-06T12:56:35.593Z,40
2023-05-06T13:01:36.910Z,39
2023-05-06T13:06:38.620Z,39
2023-05-06T13:11:39.946Z,39
2023-05-06T13:16:41.875Z,38
2023-05-06T13:21:43.306Z,40
2023-05-06T13:26:44.973Z,40
2023-05-06T13:31:47.081Z,39
2023-05-06T13:36:48.727Z,39
2023-05-06T13:41:50.667Z,39
2023-05-06T13:46:52.933Z,40
2023-05-06T13:51:54.204Z,40
2023-05-06T13:56:56.035Z,40
2023-05-06T14:01:57.649Z,41
2023-05-06T14:06:59.293Z,39
2023-05-06T14:12:00.832Z,40
2023-05-06T14:17:02.956Z,40
2023-05-06T14:22:04.236Z,40
2023-05-06T14:27:05.759Z,39
2023-05-06T14:32:07.596Z,41
2023-05-06T14:37:09.276Z,41
2023-05-06T14:42:10.660Z,40
2023-05-06T14:47:11.939Z,38
2023-05-06T14:52:13.196Z,38
2023-05-06T14:57:14.421Z,38
2023-05-06T15:02:16.041Z,39
2023-05-06T15:07:17.937Z,39
2023-05-06T15:12:19.589Z,38
2023-05-06T15:17:21.103Z,39
2023-05-06T15:22:22.749Z,39
2023-05-06T15:27:23.947Z,39
2023-05-06T15:32:25.835Z,39
2023-05-06T15:37:27.981Z,40
2023-05-06T15:42:29.912Z,39
2023-05-06T15:47:31.175Z,39
2023-05-06T15:52:32.615Z,39
2023-05-06T15:57:33.872Z,39
2023-05-06T16:02:35.774Z,38
2023-05-06T16:07:37.031Z,38
2023-05-06T16:12:38.227Z,39
2023-05-06T16:17:40.354Z,39
2023-05-06T16:22:42.414Z,40
2023-05-06T16:27:44.140Z,40
2023-05-06T16:32:45.727Z,39
2023-05-06T16:37:47.025Z,40
2023-05-06T16:42:48.858Z,39
2023-05-06T16:47:50.992Z,39
2023-05-06T16:52:52.587Z,39
2023-05-06T16:57:54.056Z,40
2023-05-06T17:02:55.402Z,41
2023-05-06T17:07:56.609Z,41
2023-05-06T17:12:58.645Z,40
2023-05-06T17:18:00.907Z,41
2023-05-06T17:23:02.858Z,41
2023-05-06T17:28:04.544Z,41
2023-05-06T17:33:06.508Z,41
2023-05-06T17:38:08.331Z,42
2023-05-06T17:43:10.439Z,43
2023-05-06T17:48:12.421Z,42
2023-05-06T17:53:13.738Z,43
2023-05-06T17:58:15.076Z,44
2023-05-06T18:03:16.927Z,44
2023-05-06T18:08:18.705Z,44
2023-05-06T18:13:20.846Z,45
2023-05-06T18:18:21.905Z,45
2023-05-06T18:23:23.686Z,46
2023-05-06T18:28:24.895Z,46
2023-05-06T18:33:26.447Z,46
2023-05-06T19:13:40.401Z,52
2023-05-06T19:18:42.139Z,52
2023-05-06T19:23:43.645Z,53
2023-05-06T19:28:45.599Z,54
2023-05-06T19:38:48.662Z,54
2023-05-06T19:43:50.019Z,55
2023-05-06T20:24:04.375Z,57
2023-05-06T20:44:11.025Z,58
2023-05-06T21:09:19.820Z,62
2023-05-06T21:14:21.787Z,62
2023-05-06T21:34:27.965Z,63
2023-05-06T21:39:29.543Z,65
2023-05-06T21:44:31.022Z,66
2023-05-06T21:49:32.373Z,64
2023-05-06T21:54:34.143Z,66
2023-05-06T21:59:36.304Z,66
2023-05-06T22:04:37.879Z,66
2023-05-06T22:09:39.949Z,66
2023-05-06T22:14:42.090Z,67
2023-05-06T22:19:44.055Z,68
2023-05-06T22:24:45.929Z,67
2023-05-06T22:29:48.044Z,68
2023-05-06T22:34:49.914Z,69
2023-05-06T22:39:51.651Z,69
2023-05-06T22:44:53.727Z,69
2023-05-06T22:49:55.722Z,70
2023-05-06T22:54:57.084Z,70
2023-05-06T22:55:03.403Z,70
2023-05-06T23:00:04.762Z,70
2023-05-06T23:05:06.143Z,70
2023-05-06T23:10:07.981Z,71
2023-05-06T23:15:09.712Z,70
2023-05-06T23:20:11.790Z,71
2023-05-06T23:25:13.372Z,72
2023-05-06T23:30:14.556Z,71
2023-05-06T23:35:15.784Z,71
2023-05-06T23:40:17.002Z,71
2023-05-06T23:45:18.519Z,72
2023-05-06T23:50:20.390Z,71
2023-05-06T23:55:21.949Z,72
